Vb Andalucia — ECFI — position and weather

sailwx.info

Track history (hours):
 
Tides and Currents Weather Stations Pressure Air Temp Water Temp Dewpoint Dewpoint Depression Visibility Wind Speed Wind Dir Waves Ship Positions

Vb Andalucia

Last reported at 2014-Oct-25 15:31 UTC. Time now 2014-Oct-25 16:00 UTC.
Position N 36°08' W 005°26'.

Length 30 m; draft 5.8 m.

Type: Tug. MMSI: 224117450.

Date/timePositionNaut miles runAvg speedWind from/ knotsBaromVisibWave heightAir tempDewpointWater temp
2014-Oct-25 15:31N 36°08' W 005°26'0 0.0
2014-Oct-25 08:33N 36°08' W 005°26'0 0.2
2014-Oct-25 05:22N 36°08' W 005°26'1 0.1
2014-Oct-25 00:34N 36°08' W 005°25'1 0.2
2014-Oct-24 19:33N 36°08' W 005°25'1 0.4
2014-Oct-24 18:15N 36°09' W 005°26'1 1.7
2014-Oct-24 17:31N 36°08' W 005°25'1 0.6
2014-Oct-24 16:23N 36°08' W 005°25'1 0.8
2014-Oct-24 15:34N 36°09' W 005°26'0 0.0
2014-Oct-24 09:28N 36°09' W 005°26'0 0.1
2014-Oct-24 05:31N 36°09' W 005°26'2 0.4
2014-Oct-24 00:34N 36°07' W 005°25'2 1.9
2014-Oct-23 23:33N 36°09' W 005°26'1 0.1
2014-Oct-23 15:09N 36°08' W 005°26'0 0.1
2014-Oct-23 10:33N 36°08' W 005°25'1 0.7
2014-Oct-23 09:31N 36°08' W 005°26'1 0.2
2014-Oct-23 04:28N 36°09' W 005°26'1 0.7
2014-Oct-23 03:33N 36°09' W 005°25'1 0.2
2014-Oct-23 00:05N 36°08' W 005°25'0 0.3
2014-Oct-22 23:31N 36°08' W 005°26'1 0.2
2014-Oct-22 20:33N 36°08' W 005°26'0 0.4
2014-Oct-22 19:32N 36°08' W 005°26'0 0.0
2014-Oct-22 18:31N 36°08' W 005°26'0 0.0
2014-Oct-22 17:27N 36°08' W 005°26'1 0.2
2014-Oct-22 11:30N 36°09' W 005°26'0 0.2
2014-Oct-22 10:25N 36°09' W 005°26'0 0.0
2014-Oct-22 08:33N 36°09' W 005°26'0 0.0
2014-Oct-22 06:07N 36°09' W 005°26'1 1.9
2014-Oct-22 05:33N 36°08' W 005°26'0 0.0
2014-Oct-22 04:33N 36°08' W 005°26'0 0.1
2014-Oct-21 19:33N 36°08' W 005°25'0 0.0
2014-Oct-21 18:33N 36°08' W 005°25'0 0.0
2014-Oct-21 17:33N 36°08' W 005°25'0 0.2
2014-Oct-21 16:33N 36°08' W 005°25'1 0.4
2014-Oct-21 13:29N 36°09' W 005°26'1 0.9
2014-Oct-21 12:33N 36°08' W 005°26'0 0.5
2014-Oct-21 11:33N 36°09' W 005°26'1 0.6
2014-Oct-21 10:33N 36°08' W 005°26'1 0.3
2014-Oct-21 08:06N 36°09' W 005°26'1 0.1
2014-Oct-21 00:34N 36°08' W 005°26'1 0.2
2014-Oct-20 20:27N 36°08' W 005°25'0 0.0
2014-Oct-20 12:15N 36°07' W 005°25'2 0.3
2014-Oct-20 07:33N 36°09' W 005°26'0 0.3
2014-Oct-20 06:16N 36°09' W 005°26'0 0.1
2014-Oct-20 00:19N 36°09' W 005°26'1 1.1
2014-Oct-19 23:21N 36°09' W 005°25'1 0.3
2014-Oct-19 20:22N 36°08' W 005°26'0 0.4
2014-Oct-19 19:33N 36°08' W 005°25'0 0.0
2014-Oct-19 18:34N 36°08' W 005°25'0 0.3
2014-Oct-19 17:28N 36°08' W 005°25'1 1.2
2014-Oct-19 16:32N 36°09' W 005°26'1 0.9
2014-Oct-19 15:18N 36°08' W 005°25'1 1.2
2014-Oct-19 14:28N 36°09' W 005°26'0 0.0
2014-Oct-19 10:28N 36°09' W 005°26'1 0.2
2014-Oct-19 01:34N 36°08' W 005°25'0 0.1
2014-Oct-19 00:33N 36°08' W 005°25'1 0.4
2014-Oct-18 21:29N 36°09' W 005°26'1 1.2
2014-Oct-18 20:33N 36°08' W 005°25'0 0.4
2014-Oct-18 19:33N 36°08' W 005°25'0 0.0
2014-Oct-18 18:23N 36°08' W 005°25'2 0.2
2014-Oct-18 07:29N 36°11' W 005°25'2 1.0
2014-Oct-18 05:33N 36°09' W 005°26'0 0.4
2014-Oct-18 04:26N 36°08' W 005°26'1 0.2
2014-Oct-18 01:33N 36°09' W 005°26'0 0.3
2014-Oct-18 00:33N 36°09' W 005°26'1 0.5
2014-Oct-17 23:33N 36°08' W 005°26'0 0.4
2014-Oct-17 22:33N 36°08' W 005°25'0 0.2
2014-Oct-17 21:26N 36°08' W 005°26'0 0.0
2014-Oct-17 10:32N 36°08' W 005°26'0 0.0
2014-Oct-17 09:29N 36°08' W 005°26'0 0.0
2014-Oct-17 08:33N 36°08' W 005°26'0 0.0
2014-Oct-17 07:28N 36°08' W 005°26'1 0.7
2014-Oct-17 05:20N 36°09' W 005°24'2 2.0
2014-Oct-17 04:33N 36°09' W 005°26'0 0.1
2014-Oct-17 03:33N 36°09' W 005°26'1 0.4
2014-Oct-17 01:17N 36°08' W 005°26'0 0.2
2014-Oct-17 00:06N 36°08' W 005°25'1 1.1
2014-Oct-16 23:34N 36°09' W 005°25'1 0.1
2014-Oct-16 15:15N 36°09' W 005°26'1 2.1
2014-Oct-16 14:33N 36°09' W 005°24'1 1.3
2014-Oct-16 13:33N 36°09' W 005°26'3 2.8
2014-Oct-16 12:32N 36°10' W 005°23'2 2.0
2014-Oct-16 11:33N 36°09' W 005°24'2 0.4
2014-Oct-16 07:31N 36°08' W 005°26'1 0.7
2014-Oct-16 06:34N 36°08' W 005°25'1 0.1
2014-Oct-15 22:33N 36°08' W 005°26'  
Track history (hours):
 
Tides and Currents Weather Stations Pressure Air Temp Water Temp Dewpoint Dewpoint Depression Visibility Wind Speed Wind Dir Waves Ship Positions

Vb Andalucia

Last reported at 2014-Oct-25 15:31 UTC. Time now 2014-Oct-25 16:00 UTC.
Position N 36°08' W 005°26'.

Length 30 m; draft 5.8 m.

Type: Tug. MMSI: 224117450.

Date/timePositionNaut miles runAvg speedWind from/ knotsBaromVisibWave heightAir tempDewpointWater temp
2014-Oct-25 15:31N 36°08' W 005°26'0 0.0
2014-Oct-25 08:33N 36°08' W 005°26'0 0.2
2014-Oct-25 05:22N 36°08' W 005°26'1 0.1
2014-Oct-25 00:34N 36°08' W 005°25'1 0.2
2014-Oct-24 19:33N 36°08' W 005°25'1 0.4
2014-Oct-24 18:15N 36°09' W 005°26'1 1.7
2014-Oct-24 17:31N 36°08' W 005°25'1 0.6
2014-Oct-24 16:23N 36°08' W 005°25'1 0.8
2014-Oct-24 15:34N 36°09' W 005°26'0 0.0
2014-Oct-24 09:28N 36°09' W 005°26'0 0.1
2014-Oct-24 05:31N 36°09' W 005°26'2 0.4
2014-Oct-24 00:34N 36°07' W 005°25'2 1.9
2014-Oct-23 23:33N 36°09' W 005°26'1 0.1
2014-Oct-23 15:09N 36°08' W 005°26'0 0.1
2014-Oct-23 10:33N 36°08' W 005°25'1 0.7
2014-Oct-23 09:31N 36°08' W 005°26'1 0.2
2014-Oct-23 04:28N 36°09' W 005°26'1 0.7
2014-Oct-23 03:33N 36°09' W 005°25'1 0.2
2014-Oct-23 00:05N 36°08' W 005°25'0 0.3
2014-Oct-22 23:31N 36°08' W 005°26'1 0.2
2014-Oct-22 20:33N 36°08' W 005°26'0 0.4
2014-Oct-22 19:32N 36°08' W 005°26'0 0.0
2014-Oct-22 18:31N 36°08' W 005°26'0 0.0
2014-Oct-22 17:27N 36°08' W 005°26'1 0.2
2014-Oct-22 11:30N 36°09' W 005°26'0 0.2
2014-Oct-22 10:25N 36°09' W 005°26'0 0.0
2014-Oct-22 08:33N 36°09' W 005°26'0 0.0
2014-Oct-22 06:07N 36°09' W 005°26'1 1.9
2014-Oct-22 05:33N 36°08' W 005°26'0 0.0
2014-Oct-22 04:33N 36°08' W 005°26'0 0.1
2014-Oct-21 19:33N 36°08' W 005°25'0 0.0
2014-Oct-21 18:33N 36°08' W 005°25'0 0.0
2014-Oct-21 17:33N 36°08' W 005°25'0 0.2
2014-Oct-21 16:33N 36°08' W 005°25'1 0.4
2014-Oct-21 13:29N 36°09' W 005°26'1 0.9
2014-Oct-21 12:33N 36°08' W 005°26'0 0.5
2014-Oct-21 11:33N 36°09' W 005°26'1 0.6
2014-Oct-21 10:33N 36°08' W 005°26'1 0.3
2014-Oct-21 08:06N 36°09' W 005°26'1 0.1
2014-Oct-21 00:34N 36°08' W 005°26'1 0.2
2014-Oct-20 20:27N 36°08' W 005°25'0 0.0
2014-Oct-20 12:15N 36°07' W 005°25'2 0.3
2014-Oct-20 07:33N 36°09' W 005°26'0 0.3
2014-Oct-20 06:16N 36°09' W 005°26'0 0.1
2014-Oct-20 00:19N 36°09' W 005°26'1 1.1
2014-Oct-19 23:21N 36°09' W 005°25'1 0.3
2014-Oct-19 20:22N 36°08' W 005°26'0 0.4
2014-Oct-19 19:33N 36°08' W 005°25'0 0.0
2014-Oct-19 18:34N 36°08' W 005°25'0 0.3
2014-Oct-19 17:28N 36°08' W 005°25'1 1.2
2014-Oct-19 16:32N 36°09' W 005°26'1 0.9
2014-Oct-19 15:18N 36°08' W 005°25'1 1.2
2014-Oct-19 14:28N 36°09' W 005°26'0 0.0
2014-Oct-19 10:28N 36°09' W 005°26'1 0.2
2014-Oct-19 01:34N 36°08' W 005°25'0 0.1
2014-Oct-19 00:33N 36°08' W 005°25'1 0.4
2014-Oct-18 21:29N 36°09' W 005°26'1 1.2
2014-Oct-18 20:33N 36°08' W 005°25'0 0.4
2014-Oct-18 19:33N 36°08' W 005°25'0 0.0
2014-Oct-18 18:23N 36°08' W 005°25'2 0.2
2014-Oct-18 07:29N 36°11' W 005°25'2 1.0
2014-Oct-18 05:33N 36°09' W 005°26'0 0.4
2014-Oct-18 04:26N 36°08' W 005°26'1 0.2
2014-Oct-18 01:33N 36°09' W 005°26'0 0.3
2014-Oct-18 00:33N 36°09' W 005°26'1 0.5
2014-Oct-17 23:33N 36°08' W 005°26'0 0.4
2014-Oct-17 22:33N 36°08' W 005°25'0 0.2
2014-Oct-17 21:26N 36°08' W 005°26'0 0.0
2014-Oct-17 10:32N 36°08' W 005°26'0 0.0
2014-Oct-17 09:29N 36°08' W 005°26'0 0.0
2014-Oct-17 08:33N 36°08' W 005°26'0 0.0
2014-Oct-17 07:28N 36°08' W 005°26'1 0.7
2014-Oct-17 05:20N 36°09' W 005°24'2 2.0
2014-Oct-17 04:33N 36°09' W 005°26'0 0.1
2014-Oct-17 03:33N 36°09' W 005°26'1 0.4
2014-Oct-17 01:17N 36°08' W 005°26'0 0.2
2014-Oct-17 00:06N 36°08' W 005°25'1 1.1
2014-Oct-16 23:34N 36°09' W 005°25'1 0.1
2014-Oct-16 15:15N 36°09' W 005°26'1 2.1
2014-Oct-16 14:33N 36°09' W 005°24'1 1.3
2014-Oct-16 13:33N 36°09' W 005°26'3 2.8
2014-Oct-16 12:32N 36°10' W 005°23'2 2.0
2014-Oct-16 11:33N 36°09' W 005°24'2 0.4
2014-Oct-16 07:31N 36°08' W 005°26'1 0.7
2014-Oct-16 06:34N 36°08' W 005°25'1 0.1
2014-Oct-15 22:33N 36°08' W 005°26'  

Dump ship's entire track history